Zorra — MFJU2 — position and weather

sailwx.info

Track history (hours):
 
Tides and Currents Weather Stations Pressure Air Temp Water Temp Dewpoint Dewpoint Depression Visibility Wind Speed Wind Dir Waves Ship Positions

Zorra

Last reported at 2017-Oct-15 16:20 UTC. Time now 2017-Nov-23 16:48 UTC.
Position N 50°43' W 001°58'.
Warning: this ship's position is 39 days out of date.

Length 12 m.

Type: Sailing vessel. MMSI: 235019256.

Date/timePositionNaut miles runAvg speedWind from/ knotsBaromVisibWave heightAir tempDewpointWater temp
2017-Oct-15 16:20N 50°43' W 001°58'2 3.4
2017-Oct-15 15:53N 50°41' W 001°57'2 6.0
2017-Oct-15 15:29N 50°39' W 001°55'3 5.8
2017-Oct-15 15:00N 50°40' W 001°50'21 4.7
2017-Oct-15 10:25N 50°48' W 001°19'15 0.7
2017-Oct-14 14:11N 50°42' W 001°40'1 5.0
2017-Oct-14 13:58N 50°42' W 001°42'3 5.4
2017-Oct-14 13:30N 50°41' W 001°45'3 5.9
2017-Oct-14 13:00N 50°40' W 001°50'2 4.2
2017-Oct-14 12:30N 50°39' W 001°53'4 4.3
2017-Oct-14 11:29N 50°42' W 001°58'  
Track history (hours):
 
Tides and Currents Weather Stations Pressure Air Temp Water Temp Dewpoint Dewpoint Depression Visibility Wind Speed Wind Dir Waves Ship Positions

Zorra

Last reported at 2017-Oct-15 16:20 UTC. Time now 2017-Nov-23 16:48 UTC.
Position N 50°43' W 001°58'.
Warning: this ship's position is 39 days out of date.

Length 12 m.

Type: Sailing vessel. MMSI: 235019256.

Date/timePositionNaut miles runAvg speedWind from/ knotsBaromVisibWave heightAir tempDewpointWater temp
2017-Oct-15 16:20N 50°43' W 001°58'2 3.4
2017-Oct-15 15:53N 50°41' W 001°57'2 6.0
2017-Oct-15 15:29N 50°39' W 001°55'3 5.8
2017-Oct-15 15:00N 50°40' W 001°50'21 4.7
2017-Oct-15 10:25N 50°48' W 001°19'15 0.7
2017-Oct-14 14:11N 50°42' W 001°40'1 5.0
2017-Oct-14 13:58N 50°42' W 001°42'3 5.4
2017-Oct-14 13:30N 50°41' W 001°45'3 5.9
2017-Oct-14 13:00N 50°40' W 001°50'2 4.2
2017-Oct-14 12:30N 50°39' W 001°53'4 4.3
2017-Oct-14 11:29N 50°42' W 001°58'  

Dump ship's entire track history